sensor_id;sensor_type;location;lat;lon;timestamp;pressure;altitude;pressure_sealevel;temperature;humidity
54038;BME280;39954;48.844;9.726;2023-04-04T00:01:03;96870.75;;;-4.47;100.00
54038;BME280;39954;48.844;9.726;2023-04-04T00:02:06;96866.53;;;-4.45;100.00
54038;BME280;39954;48.844;9.726;2023-04-04T00:03:11;96859.78;;;-4.48;100.00
54038;BME280;39954;48.844;9.726;2023-04-04T00:04:13;96862.31;;;-4.48;100.00
54038;BME280;39954;48.844;9.726;2023-04-04T00:05:19;96859.69;;;-4.51;100.00
54038;BME280;39954;48.844;9.726;2023-04-04T00:06:22;96855.50;;;-4.51;100.00
54038;BME280;39954;48.844;9.726;2023-04-04T00:07:26;96858.00;;;-4.54;100.00
54038;BME280;39954;48.844;9.726;2023-04-04T00:08:29;96861.31;;;-4.58;100.00
54038;BME280;39954;48.844;9.726;2023-04-04T00:09:33;96862.22;;;-4.51;100.00
54038;BME280;39954;48.844;9.726;2023-04-04T00:10:35;96860.50;;;-4.55;100.00
54038;BME280;39954;48.844;9.726;2023-04-04T00:11:43;96849.63;;;-4.48;100.00
54038;BME280;39954;48.844;9.726;2023-04-04T00:12:45;96855.53;;;-4.46;100.00
54038;BME280;39954;48.844;9.726;2023-04-04T00:13:50;96857.22;;;-4.48;100.00
54038;BME280;39954;48.844;9.726;2023-04-04T00:14:52;96852.13;;;-4.50;100.00
54038;BME280;39954;48.844;9.726;2023-04-04T00:15:58;96853.84;;;-4.45;100.00
54038;BME280;39954;48.844;9.726;2023-04-04T00:18:33;96847.16;;;-4.40;100.00
54038;BME280;39954;48.844;9.726;2023-04-04T00:21:48;96847.13;;;-4.45;100.00
54038;BME280;39954;48.844;9.726;2023-04-04T00:22:53;96847.09;;;-4.48;100.00
54038;BME280;39954;48.844;9.726;2023-04-04T00:23:56;96850.44;;;-4.51;100.00
54038;BME280;39954;48.844;9.726;2023-04-04T00:25:00;96851.25;;;-4.52;100.00
54038;BME280;39954;48.844;9.726;2023-04-04T00:26:02;96843.59;;;-4.56;100.00
54038;BME280;39954;48.844;9.726;2023-04-04T00:27:10;96846.94;;;-4.57;100.00
54038;BME280;39954;48.844;9.726;2023-04-04T00:28:12;96840.16;;;-4.57;100.00
54038;BME280;39954;48.844;9.726;2023-04-04T00:29:16;96843.59;;;-4.56;100.00
54038;BME280;39954;48.844;9.726;2023-04-04T00:30:18;96840.94;;;-4.62;100.00
54038;BME280;39954;48.844;9.726;2023-04-04T00:31:23;96842.66;;;-4.61;100.00
54038;BME280;39954;48.844;9.726;2023-04-04T00:32:25;96834.19;;;-4.62;100.00
54038;BME280;39954;48.844;9.726;2023-04-04T00:33:30;96844.38;;;-4.59;100.00
54038;BME280;39954;48.844;9.726;2023-04-04T00:34:33;96841.81;;;-4.60;100.00
54038;BME280;39954;48.844;9.726;2023-04-04T00:35:38;96835.97;;;-4.56;100.00
54038;BME280;39954;48.844;9.726;2023-04-04T00:36:40;96836.78;;;-4.59;100.00
54038;BME280;39954;48.844;9.726;2023-04-04T00:37:45;96835.91;;;-4.61;100.00
54038;BME280;39954;48.844;9.726;2023-04-04T00:38:47;96828.25;;;-4.62;100.00
54038;BME280;39954;48.844;9.726;2023-04-04T00:39:51;96833.31;;;-4.62;100.00
54038;BME280;39954;48.844;9.726;2023-04-04T00:40:55;96831.63;;;-4.65;100.00
54038;BME280;39954;48.844;9.726;2023-04-04T00:42:00;96835.06;;;-4.61;100.00
54038;BME280;39954;48.844;9.726;2023-04-04T00:43:06;96832.44;;;-4.67;100.00
54038;BME280;39954;48.844;9.726;2023-04-04T00:44:10;96828.16;;;-4.70;100.00
54038;BME280;39954;48.844;9.726;2023-04-04T00:45:12;96829.00;;;-4.69;100.00
54038;BME280;39954;48.844;9.726;2023-04-04T00:46:18;96827.28;;;-4.72;100.00
54038;BME280;39954;48.844;9.726;2023-04-04T00:47:23;96833.19;;;-4.73;100.00
54038;BME280;39954;48.844;9.726;2023-04-04T00:48:27;96829.69;;;-4.80;100.00
54038;BME280;39954;48.844;9.726;2023-04-04T00:49:32;96833.16;;;-4.75;100.00
54038;BME280;39954;48.844;9.726;2023-04-04T00:50:35;96828.09;;;-4.75;100.00
54038;BME280;39954;48.844;9.726;2023-04-04T00:51:40;96827.25;;;-4.74;100.00
54038;BME280;39954;48.844;9.726;2023-04-04T00:52:42;96828.88;;;-4.79;100.00
54038;BME280;39954;48.844;9.726;2023-04-04T00:53:47;96827.97;;;-4.82;100.00
54038;BME280;39954;48.844;9.726;2023-04-04T00:54:51;96822.88;;;-4.84;100.00
54038;BME280;39954;48.844;9.726;2023-04-04T00:55:56;96831.41;;;-4.79;100.00
54038;BME280;39954;48.844;9.726;2023-04-04T00:57:00;96822.22;;;-4.72;100.00
54038;BME280;39954;48.844;9.726;2023-04-04T00:58:07;96819.75;;;-4.67;100.00
54038;BME280;39954;48.844;9.726;2023-04-04T00:59:10;96816.38;;;-4.66;100.00
54038;BME280;39954;48.844;9.726;2023-04-04T01:00:17;96817.25;;;-4.64;100.00
54038;BME280;39954;48.844;9.726;2023-04-04T01:01:19;96819.75;;;-4.66;100.00
54038;BME280;39954;48.844;9.726;2023-04-04T01:02:26;96823.13;;;-4.65;100.00
54038;BME280;39954;48.844;9.726;2023-04-04T01:03:28;96822.22;;;-4.70;100.00
54038;BME280;39954;48.844;9.726;2023-04-04T01:04:33;96817.94;;;-4.75;100.00
54038;BME280;39954;48.844;9.726;2023-04-04T01:05:35;96813.75;;;-4.71;100.00
54038;BME280;39954;48.844;9.726;2023-04-04T01:06:40;96814.59;;;-4.72;100.00
54038;BME280;39954;48.844;9.726;2023-04-04T01:07:42;96811.34;;;-4.65;100.00
54038;BME280;39954;48.844;9.726;2023-04-04T01:08:48;96811.34;;;-4.63;100.00
54038;BME280;39954;48.844;9.726;2023-04-04T01:09:51;96807.16;;;-4.60;100.00
54038;BME280;39954;48.844;9.726;2023-04-04T01:10:59;96802.16;;;-4.55;100.00
54038;BME280;39954;48.844;9.726;2023-04-04T01:12:01;96801.28;;;-4.57;100.00
54038;BME280;39954;48.844;9.726;2023-04-04T01:13:09;96805.41;;;-4.62;100.00
54038;BME280;39954;48.844;9.726;2023-04-04T01:14:11;96801.22;;;-4.60;100.00
54038;BME280;39954;48.844;9.726;2023-04-04T01:15:16;96796.94;;;-4.66;100.00
54038;BME280;39954;48.844;9.726;2023-04-04T01:16:18;96798.56;;;-4.69;100.00
54038;BME280;39954;48.844;9.726;2023-04-04T01:17:25;96797.78;;;-4.65;100.00
54038;BME280;39954;48.844;9.726;2023-04-04T01:18:30;96792.66;;;-4.68;100.00
54038;BME280;39954;48.844;9.726;2023-04-04T01:19:42;96791.81;;;-4.69;100.00
54038;BME280;39954;48.844;9.726;2023-04-04T01:20:52;96808.72;;;-4.69;100.00
54038;BME280;39954;48.844;9.726;2023-04-04T01:21:58;96801.91;;;-4.72;100.00
54038;BME280;39954;48.844;9.726;2023-04-04T01:23:03;96790.03;;;-4.75;100.00
54038;BME280;39954;48.844;9.726;2023-04-04T01:24:09;96792.63;;;-4.72;100.00
54038;BME280;39954;48.844;9.726;2023-04-04T01:25:14;96799.34;;;-4.74;100.00
54038;BME280;39954;48.844;9.726;2023-04-04T01:26:22;96797.66;;;-4.75;100.00
54038;BME280;39954;48.844;9.726;2023-04-04T01:27:25;96798.44;;;-4.79;100.00
54038;BME280;39954;48.844;9.726;2023-04-04T01:28:30;96795.06;;;-4.78;100.00
54038;BME280;39954;48.844;9.726;2023-04-04T01:29:32;96795.91;;;-4.79;100.00
54038;BME280;39954;48.844;9.726;2023-04-04T01:30:38;96794.13;;;-4.86;100.00
54038;BME280;39954;48.844;9.726;2023-04-04T01:31:46;96788.16;;;-4.88;100.00
54038;BME280;39954;48.844;9.726;2023-04-04T01:32:55;96794.06;;;-4.89;100.00
54038;BME280;39954;48.844;9.726;2023-04-04T01:34:06;96795.72;;;-4.91;100.00
54038;BME280;39954;48.844;9.726;2023-04-04T01:35:20;96794.78;;;-4.98;100.00
54038;BME280;39954;48.844;9.726;2023-04-04T01:36:28;96791.44;;;-4.95;100.00
54038;BME280;39954;48.844;9.726;2023-04-04T01:37:40;96790.72;;;-4.85;100.00
54038;BME280;39954;48.844;9.726;2023-04-04T01:38:52;96793.28;;;-4.85;100.00
54038;BME280;39954;48.844;9.726;2023-04-04T01:40:03;96794.91;;;-4.90;100.00
54038;BME280;39954;48.844;9.726;2023-04-04T01:41:10;96792.38;;;-4.90;100.00
54038;BME280;39954;48.844;9.726;2023-04-04T01:44:23;96794.06;;;-4.89;100.00
54038;BME280;39954;48.844;9.726;2023-04-04T01:45:29;96785.66;;;-4.85;100.00
54038;BME280;39954;48.844;9.726;2023-04-04T01:46:31;96790.69;;;-4.88;100.00
54038;BME280;39954;48.844;9.726;2023-04-04T01:47:37;96792.38;;;-4.90;100.00
54038;BME280;39954;48.844;9.726;2023-04-04T01:48:39;96792.31;;;-4.93;100.00
54038;BME280;39954;48.844;9.726;2023-04-04T01:49:44;96797.38;;;-4.95;100.00
54038;BME280;39954;48.844;9.726;2023-04-04T01:50:46;96794.78;;;-4.98;100.00
54038;BME280;39954;48.844;9.726;2023-04-04T01:51:51;96796.53;;;-4.95;100.00
54038;BME280;39954;48.844;9.726;2023-04-04T01:54:46;96799.91;;;-4.95;100.00
54038;BME280;39954;48.844;9.726;2023-04-04T01:55:51;96795.59;;;-4.99;100.00
54038;BME280;39954;48.844;9.726;2023-04-04T01:56:53;96795.59;;;-5.00;100.00
54038;BME280;39954;48.844;9.726;2023-04-04T01:57:59;96797.25;;;-5.02;100.00
54038;BME280;39954;48.844;9.726;2023-04-04T01:59:01;96802.31;;;-5.02;100.00
54038;BME280;39954;48.844;9.726;2023-04-04T02:00:10;96798.88;;;-5.06;100.00
54038;BME280;39954;48.844;9.726;2023-04-04T02:01:12;96795.50;;;-5.05;100.00
54038;BME280;39954;48.844;9.726;2023-04-04T02:02:17;96794.59;;;-5.10;100.00
54038;BME280;39954;48.844;9.726;2023-04-04T02:03:19;96795.50;;;-5.06;100.00
54038;BME280;39954;48.844;9.726;2023-04-04T02:04:24;96798.81;;;-5.10;100.00
54038;BME280;39954;48.844;9.726;2023-04-04T02:05:26;96795.50;;;-5.06;100.00
54038;BME280;39954;48.844;9.726;2023-04-04T02:06:31;96800.44;;;-5.14;100.00
54038;BME280;39954;48.844;9.726;2023-04-04T02:07:33;96799.75;;;-5.05;100.00
54038;BME280;39954;48.844;9.726;2023-04-04T02:08:38;96795.50;;;-5.06;100.00
54038;BME280;39954;48.844;9.726;2023-04-04T02:09:40;96795.41;;;-5.12;100.00
54038;BME280;39954;48.844;9.726;2023-04-04T02:10:44;96799.59;;;-5.14;100.00
54038;BME280;39954;48.844;9.726;2023-04-04T02:11:49;96801.28;;;-5.13;100.00
54038;BME280;39954;48.844;9.726;2023-04-04T02:12:51;96797.06;;;-5.13;100.00
54038;BME280;39954;48.844;9.726;2023-04-04T02:13:56;96796.25;;;-5.12;100.00
54038;BME280;39954;48.844;9.726;2023-04-04T02:14:59;96802.22;;;-5.08;100.00
54038;BME280;39954;48.844;9.726;2023-04-04T02:16:06;96805.59;;;-5.09;100.00
54038;BME280;39954;48.844;9.726;2023-04-04T02:17:08;96799.69;;;-5.08;100.00
54038;BME280;39954;48.844;9.726;2023-04-04T02:18:14;96796.41;;;-5.03;100.00
54038;BME280;39954;48.844;9.726;2023-04-04T02:19:16;96796.31;;;-5.07;100.00
54038;BME280;39954;48.844;9.726;2023-04-04T02:20:21;96795.47;;;-5.09;100.00
54038;BME280;39954;48.844;9.726;2023-04-04T02:21:23;96792.84;;;-5.14;100.00
54038;BME280;39954;48.844;9.726;2023-04-04T02:22:28;96794.50;;;-5.18;100.00
54038;BME280;39954;48.844;9.726;2023-04-04T02:23:30;96794.50;;;-5.18;100.00
54038;BME280;39954;48.844;9.726;2023-04-04T02:24:35;96785.28;;;-5.12;100.00
54038;BME280;39954;48.844;9.726;2023-04-04T02:25:37;96793.75;;;-5.10;100.00
54038;BME280;39954;48.844;9.726;2023-04-04T02:26:42;96789.50;;;-5.11;100.00
54038;BME280;39954;48.844;9.726;2023-04-04T02:27:44;96786.09;;;-5.13;100.00
54038;BME280;39954;48.844;9.726;2023-04-04T02:28:48;96786.97;;;-5.10;100.00
54038;BME280;39954;48.844;9.726;2023-04-04T02:29:50;96787.03;;;-5.08;100.00
54038;BME280;39954;48.844;9.726;2023-04-04T02:30:58;96793.00;;;-5.03;100.00
54038;BME280;39954;48.844;9.726;2023-04-04T02:32:03;96781.16;;;-5.06;100.00
54038;BME280;39954;48.844;9.726;2023-04-04T02:33:08;96789.59;;;-5.05;100.00
54038;BME280;39954;48.844;9.726;2023-04-04T02:34:10;96783.59;;;-5.10;100.00
54038;BME280;39954;48.844;9.726;2023-04-04T02:35:15;96786.22;;;-5.06;100.00
54038;BME280;39954;48.844;9.726;2023-04-04T02:36:18;96785.44;;;-5.00;100.00
54038;BME280;39954;48.844;9.726;2023-04-04T02:37:22;96792.19;;;-5.02;100.00
54038;BME280;39954;48.844;9.726;2023-04-04T02:38:25;96785.31;;;-5.09;100.00
54038;BME280;39954;48.844;9.726;2023-04-04T02:39:30;96779.34;;;-5.13;100.00
54038;BME280;39954;48.844;9.726;2023-04-04T02:40:32;96785.28;;;-5.12;100.00
54038;BME280;39954;48.844;9.726;2023-04-04T02:41:40;96781.88;;;-5.13;100.00
54038;BME280;39954;48.844;9.726;2023-04-04T02:42:42;96778.34;;;-5.23;100.00
54038;BME280;39954;48.844;9.726;2023-04-04T02:43:47;96784.19;;;-5.27;100.00
54038;BME280;39954;48.844;9.726;2023-04-04T02:44:49;96785.78;;;-5.33;100.00
54038;BME280;39954;48.844;9.726;2023-04-04T02:45:54;96781.50;;;-5.36;100.00
54038;BME280;39954;48.844;9.726;2023-04-04T02:46:56;96783.16;;;-5.38;100.00
54038;BME280;39954;48.844;9.726;2023-04-04T02:48:04;96775.56;;;-5.40;100.00
54038;BME280;39954;48.844;9.726;2023-04-04T02:49:08;96783.16;;;-5.40;100.00
54038;BME280;39954;48.844;9.726;2023-04-04T02:50:13;96777.28;;;-5.35;100.00
54038;BME280;39954;48.844;9.726;2023-04-04T02:51:15;96778.09;;;-5.38;100.00
54038;BME280;39954;48.844;9.726;2023-04-04T02:52:19;96779.78;;;-5.40;100.00
54038;BME280;39954;48.844;9.726;2023-04-04T02:53:22;96778.13;;;-5.35;100.00
54038;BME280;39954;48.844;9.726;2023-04-04T02:54:26;96779.91;;;-5.29;100.00
54038;BME280;39954;48.844;9.726;2023-04-04T02:55:28;96775.72;;;-5.27;100.00
54038;BME280;39954;48.844;9.726;2023-04-04T02:56:35;96779.03;;;-5.33;100.00
54038;BME280;39954;48.844;9.726;2023-04-04T02:57:37;96777.34;;;-5.34;100.00
54038;BME280;39954;48.844;9.726;2023-04-04T02:58:42;96781.47;;;-5.39;100.00
54038;BME280;39954;48.844;9.726;2023-04-04T02:59:44;96777.25;;;-5.38;100.00
54038;BME280;39954;48.844;9.726;2023-04-04T03:00:53;96779.81;;;-5.37;100.00
54038;BME280;39954;48.844;9.726;2023-04-04T03:01:55;96780.63;;;-5.40;100.00
54038;BME280;39954;48.844;9.726;2023-04-04T03:03:00;96783.91;;;-5.45;100.00
54038;BME280;39954;48.844;9.726;2023-04-04T03:04:05;96781.28;;;-5.50;100.00
54038;BME280;39954;48.844;9.726;2023-04-04T03:05:11;96784.56;;;-5.55;100.00
54038;BME280;39954;48.844;9.726;2023-04-04T03:06:13;96787.97;;;-5.53;100.00
54038;BME280;39954;48.844;9.726;2023-04-04T03:07:19;96790.44;;;-5.58;100.00
54038;BME280;39954;48.844;9.726;2023-04-04T03:08:22;96788.78;;;-5.56;100.00
54038;BME280;39954;48.844;9.726;2023-04-04T03:09:28;96782.78;;;-5.61;100.00
54038;BME280;39954;48.844;9.726;2023-04-04T03:10:30;96783.66;;;-5.59;100.00
54038;BME280;39954;48.844;9.726;2023-04-04T03:11:35;96782.84;;;-5.58;100.00
54038;BME280;39954;48.844;9.726;2023-04-04T03:12:37;96788.72;;;-5.59;100.00
54038;BME280;39954;48.844;9.726;2023-04-04T03:13:42;96783.66;;;-5.59;100.00
54038;BME280;39954;48.844;9.726;2023-04-04T03:14:44;96782.81;;;-5.59;100.00
54038;BME280;39954;48.844;9.726;2023-04-04T03:15:49;96772.66;;;-5.63;100.00
54038;BME280;39954;48.844;9.726;2023-04-04T03:16:51;96781.00;;;-5.67;100.00
54038;BME280;39954;48.844;9.726;2023-04-04T03:19:31;96777.53;;;-5.72;100.00
54038;BME280;39954;48.844;9.726;2023-04-04T03:20:36;96771.75;;;-5.63;100.00
54038;BME280;39954;48.844;9.726;2023-04-04T03:21:38;96775.19;;;-5.63;100.00
54038;BME280;39954;48.844;9.726;2023-04-04T03:22:43;96773.50;;;-5.60;100.00
54038;BME280;39954;48.844;9.726;2023-04-04T03:23:45;96774.38;;;-5.58;100.00
54038;BME280;39954;48.844;9.726;2023-04-04T03:24:50;96775.97;;;-5.64;100.00
54038;BME280;39954;48.844;9.726;2023-04-04T03:25:52;96780.28;;;-5.58;100.00
54038;BME280;39954;48.844;9.726;2023-04-04T03:26:58;96772.69;;;-5.59;100.00
54038;BME280;39954;48.844;9.726;2023-04-04T03:28:07;96777.81;;;-5.56;100.00
54038;BME280;39954;48.844;9.726;2023-04-04T03:29:12;96772.75;;;-5.56;100.00
54038;BME280;39954;48.844;9.726;2023-04-04T03:30:17;96775.22;;;-5.59;100.00
54038;BME280;39954;48.844;9.726;2023-04-04T03:31:19;96772.66;;;-5.61;100.00
54038;BME280;39954;48.844;9.726;2023-04-04T03:32:23;96770.13;;;-5.63;100.00
54038;BME280;39954;48.844;9.726;2023-04-04T03:33:26;96774.19;;;-5.71;100.00
54038;BME280;39954;48.844;9.726;2023-04-04T03:34:33;96771.72;;;-5.66;100.00
54038;BME280;39954;48.844;9.726;2023-04-04T03:35:37;96774.28;;;-5.63;100.00
54038;BME280;39954;48.844;9.726;2023-04-04T03:36:41;96769.19;;;-5.66;100.00
54038;BME280;39954;48.844;9.726;2023-04-04T03:37:47;96767.44;;;-5.69;100.00
54038;BME280;39954;48.844;9.726;2023-04-04T03:38:49;96770.81;;;-5.70;100.00
54038;BME280;39954;48.844;9.726;2023-04-04T03:39:54;96767.53;;;-5.66;100.00
54038;BME280;39954;48.844;9.726;2023-04-04T03:41:02;96765.84;;;-5.64;100.00
54038;BME280;39954;48.844;9.726;2023-04-04T03:42:07;96768.38;;;-5.64;100.00
54038;BME280;39954;48.844;9.726;2023-04-04T03:43:10;96765.91;;;-5.60;100.00
54038;BME280;39954;48.844;9.726;2023-04-04T03:44:14;96774.38;;;-5.58;100.00
54038;BME280;39954;48.844;9.726;2023-04-04T03:45:17;96761.66;;;-5.62;100.00
54038;BME280;39954;48.844;9.726;2023-04-04T03:46:22;96772.69;;;-5.59;100.00
54038;BME280;39954;48.844;9.726;2023-04-04T03:47:25;96773.53;;;-5.59;100.00
54038;BME280;39954;48.844;9.726;2023-04-04T03:48:30;96771.16;;;-5.51;100.00
54038;BME280;39954;48.844;9.726;2023-04-04T03:49:35;96774.53;;;-5.49;100.00
54038;BME280;39954;48.844;9.726;2023-04-04T03:50:40;96767.03;;;-5.45;100.00
54038;BME280;39954;48.844;9.726;2023-04-04T03:51:42;96767.91;;;-5.43;100.00
54038;BME280;39954;48.844;9.726;2023-04-04T03:52:47;96767.91;;;-5.41;100.00
54038;BME280;39954;48.844;9.726;2023-04-04T03:53:49;96762.88;;;-5.38;100.00
54038;BME280;39954;48.844;9.726;2023-04-04T03:54:54;96766.25;;;-5.39;100.00
54038;BME280;39954;48.844;9.726;2023-04-04T03:55:56;96768.94;;;-5.31;100.00
54038;BME280;39954;48.844;9.726;2023-04-04T03:57:25;96767.19;;;-5.34;100.00
54038;BME280;39954;48.844;9.726;2023-04-04T03:58:30;96767.25;;;-5.31;100.00
54038;BME280;39954;48.844;9.726;2023-04-04T03:59:32;96771.50;;;-5.27;100.00
54038;BME280;39954;48.844;9.726;2023-04-04T04:00:37;96778.22;;;-5.32;100.00
54038;BME280;39954;48.844;9.726;2023-04-04T04:01:39;96769.72;;;-5.34;100.00
54038;BME280;39954;48.844;9.726;2023-04-04T04:02:44;96773.94;;;-5.34;100.00
54038;BME280;39954;48.844;9.726;2023-04-04T04:03:46;96774.78;;;-5.34;100.00
54038;BME280;39954;48.844;9.726;2023-04-04T04:04:54;96777.34;;;-5.32;100.00
54038;BME280;39954;48.844;9.726;2023-04-04T04:05:56;96766.34;;;-5.33;100.00
54038;BME280;39954;48.844;9.726;2023-04-04T04:07:00;96776.44;;;-5.36;100.00
54038;BME280;39954;48.844;9.726;2023-04-04T04:08:03;96774.75;;;-5.37;100.00
54038;BME280;39954;48.844;9.726;2023-04-04T04:09:08;96770.63;;;-5.30;100.00
54038;BME280;39954;48.844;9.726;2023-04-04T04:12:12;96774.81;;;-5.32;100.00
54038;BME280;39954;48.844;9.726;2023-04-04T04:13:17;96768.09;;;-5.32;100.00
54038;BME280;39954;48.844;9.726;2023-04-04T04:14:19;96771.41;;;-5.34;100.00
54038;BME280;39954;48.844;9.726;2023-04-04T04:15:24;96768.09;;;-5.32;100.00
54038;BME280;39954;48.844;9.726;2023-04-04T04:16:26;96769.88;;;-5.25;100.00
54038;BME280;39954;48.844;9.726;2023-04-04T04:17:31;96763.91;;;-5.27;100.00
54038;BME280;39954;48.844;9.726;2023-04-04T04:18:33;96762.25;;;-5.26;100.00
54038;BME280;39954;48.844;9.726;2023-04-04T04:19:38;96764.75;;;-5.28;100.00
54038;BME280;39954;48.844;9.726;2023-04-04T04:20:43;96766.41;;;-5.30;100.00
54038;BME280;39954;48.844;9.726;2023-04-04T04:21:48;96757.88;;;-5.35;100.00
54038;BME280;39954;48.844;9.726;2023-04-04T04:22:50;96766.34;;;-5.33;100.00
54038;BME280;39954;48.844;9.726;2023-04-04T04:23:55;96768.13;;;-5.29;100.00
54038;BME280;39954;48.844;9.726;2023-04-04T04:24:57;96765.50;;;-5.33;100.00
54038;BME280;39954;48.844;9.726;2023-04-04T04:26:01;96761.25;;;-5.36;100.00
54038;BME280;39954;48.844;9.726;2023-04-04T04:27:04;96770.38;;;-5.46;100.00
54038;BME280;39954;48.844;9.726;2023-04-04T04:28:08;96762.72;;;-5.50;100.00
54038;BME280;39954;48.844;9.726;2023-04-04T04:29:10;96764.53;;;-5.43;100.00
54038;BME280;39954;48.844;9.726;2023-04-04T04:30:15;96767.84;;;-5.46;100.00
54038;BME280;39954;48.844;9.726;2023-04-04T04:31:17;96770.22;;;-5.55;100.00
54038;BME280;39954;48.844;9.726;2023-04-04T04:32:22;96767.69;;;-5.56;100.00
54038;BME280;39954;48.844;9.726;2023-04-04T04:33:27;96767.63;;;-5.58;100.00
54038;BME280;39954;48.844;9.726;2023-04-04T04:34:32;96771.84;;;-5.60;100.00
54038;BME280;39954;48.844;9.726;2023-04-04T04:35:35;96764.25;;;-5.58;100.00
54038;BME280;39954;48.844;9.726;2023-04-04T04:36:43;96769.38;;;-5.55;100.00
54038;BME280;39954;48.844;9.726;2023-04-04T04:37:45;96765.06;;;-5.61;100.00
54038;BME280;39954;48.844;9.726;2023-04-04T04:38:50;96770.22;;;-5.56;100.00
54038;BME280;39954;48.844;9.726;2023-04-04T04:39:52;96765.09;;;-5.58;100.00
54038;BME280;39954;48.844;9.726;2023-04-04T04:40:57;96768.47;;;-5.59;100.00
54038;BME280;39954;48.844;9.726;2023-04-04T04:41:59;96771.00;;;-5.57;100.00
54038;BME280;39954;48.844;9.726;2023-04-04T04:43:03;96767.69;;;-5.56;100.00
54038;BME280;39954;48.844;9.726;2023-04-04T04:44:06;96775.28;;;-5.56;100.00
54038;BME280;39954;48.844;9.726;2023-04-04T04:45:11;96764.25;;;-5.58;100.00
54038;BME280;39954;48.844;9.726;2023-04-04T04:46:13;96768.56;;;-5.54;100.00
54038;BME280;39954;48.844;9.726;2023-04-04T04:47:18;96765.94;;;-5.57;100.00
54038;BME280;39954;48.844;9.726;2023-04-04T04:48:20;96768.56;;;-5.54;100.00
54038;BME280;39954;48.844;9.726;2023-04-04T04:49:25;96767.63;;;-5.58;100.00
54038;BME280;39954;48.844;9.726;2023-04-04T04:50:27;96768.44;;;-5.60;100.00
54038;BME280;39954;48.844;9.726;2023-04-04T04:51:31;96770.13;;;-5.63;100.00
54038;BME280;39954;48.844;9.726;2023-04-04T04:52:38;96765.91;;;-5.60;100.00
54038;BME280;39954;48.844;9.726;2023-04-04T04:53:42;96776.03;;;-5.60;100.00
54038;BME280;39954;48.844;9.726;2023-04-04T04:54:47;96770.91;;;-5.64;100.00
54038;BME280;39954;48.844;9.726;2023-04-04T04:55:50;96779.41;;;-5.62;100.00
54038;BME280;39954;48.844;9.726;2023-04-04T04:56:55;96777.66;;;-5.66;100.00
54038;BME280;39954;48.844;9.726;2023-04-04T04:57:57;96770.06;;;-5.64;100.00
54038;BME280;39954;48.844;9.726;2023-04-04T04:59:02;96772.59;;;-5.64;100.00
54038;BME280;39954;48.844;9.726;2023-04-04T05:00:06;96773.44;;;-5.65;100.00
54038;BME280;39954;48.844;9.726;2023-04-04T05:01:11;96765.94;;;-5.59;100.00
54038;BME280;39954;48.844;9.726;2023-04-04T05:02:14;96774.38;;;-5.58;100.00
54038;BME280;39954;48.844;9.726;2023-04-04T05:03:18;96772.69;;;-5.59;100.00
54038;BME280;39954;48.844;9.726;2023-04-04T05:04:21;96776.88;;;-5.62;100.00
54038;BME280;39954;48.844;9.726;2023-04-04T05:05:25;96783.56;;;-5.64;100.00
54038;BME280;39954;48.844;9.726;2023-04-04T05:06:30;96784.50;;;-5.60;100.00
54038;BME280;39954;48.844;9.726;2023-04-04T05:07:32;96783.63;;;-5.60;100.00
54038;BME280;39954;48.844;9.726;2023-04-04T05:08:39;96783.63;;;-5.60;100.00
54038;BME280;39954;48.844;9.726;2023-04-04T05:09:44;96780.34;;;-5.55;100.00
54038;BME280;39954;48.844;9.726;2023-04-04T05:10:46;96781.19;;;-5.56;100.00
54038;BME280;39954;48.844;9.726;2023-04-04T05:11:51;96790.41;;;-5.59;100.00
54038;BME280;39954;48.844;9.726;2023-04-04T05:12:53;96784.59;;;-5.54;100.00
54038;BME280;39954;48.844;9.726;2023-04-04T05:13:58;96781.97;;;-5.58;100.00
54038;BME280;39954;48.844;9.726;2023-04-04T05:15:00;96784.56;;;-5.55;100.00
54038;BME280;39954;48.844;9.726;2023-04-04T05:16:05;96782.88;;;-5.56;100.00
54038;BME280;39954;48.844;9.726;2023-04-04T05:17:07;96781.13;;;-5.59;100.00
54038;BME280;39954;48.844;9.726;2023-04-04T05:18:12;96787.91;;;-5.58;100.00
54038;BME280;39954;48.844;9.726;2023-04-04T05:19:14;96788.72;;;-5.59;100.00
54038;BME280;39954;48.844;9.726;2023-04-04T05:20:19;96791.28;;;-5.57;100.00
54038;BME280;39954;48.844;9.726;2023-04-04T05:21:21;96784.56;;;-5.55;100.00
54038;BME280;39954;48.844;9.726;2023-04-04T05:22:26;96787.94;;;-5.56;100.00
54038;BME280;39954;48.844;9.726;2023-04-04T05:23:29;96785.41;;;-5.55;100.00
54038;BME280;39954;48.844;9.726;2023-04-04T05:24:36;96787.19;;;-5.51;100.00
54038;BME280;39954;48.844;9.726;2023-04-04T05:25:38;96790.53;;;-5.52;100.00
54038;BME280;39954;48.844;9.726;2023-04-04T05:26:43;96790.72;;;-5.41;100.00
54038;BME280;39954;48.844;9.726;2023-04-04T05:27:46;96788.28;;;-5.35;100.00
54038;BME280;39954;48.844;9.726;2023-04-04T05:28:51;96784.88;;;-5.37;100.00
54038;BME280;39954;48.844;9.726;2023-04-04T05:29:53;96786.63;;;-5.33;100.00
54038;BME280;39954;48.844;9.726;2023-04-04T05:30:58;96788.41;;;-5.29;100.00
54038;BME280;39954;48.844;9.726;2023-04-04T05:32:00;96787.69;;;-5.19;100.00
54038;BME280;39954;48.844;9.726;2023-04-04T05:33:05;96780.09;;;-5.19;100.00
54038;BME280;39954;48.844;9.726;2023-04-04T05:34:07;96787.69;;;-5.20;100.00
54038;BME280;39954;48.844;9.726;2023-04-04T05:35:12;96786.03;;;-5.18;100.00
54038;BME280;39954;48.844;9.726;2023-04-04T05:36:14;96786.97;;;-5.11;100.00
54038;BME280;39954;48.844;9.726;2023-04-04T05:37:19;96784.47;;;-5.08;100.00
54038;BME280;39954;48.844;9.726;2023-04-04T05:38:21;96778.56;;;-5.07;100.00
54038;BME280;39954;48.844;9.726;2023-04-04T05:39:26;96781.16;;;-5.04;100.00
54038;BME280;39954;48.844;9.726;2023-04-04T05:40:31;96783.84;;;-4.95;100.00
54038;BME280;39954;48.844;9.726;2023-04-04T05:41:35;96779.63;;;-4.93;100.00
54038;BME280;39954;48.844;9.726;2023-04-04T05:42:38;96792.38;;;-4.90;100.00
54038;BME280;39954;48.844;9.726;2023-04-04T05:43:43;96785.63;;;-4.88;100.00
54038;BME280;39954;48.844;9.726;2023-04-04T05:44:45;96790.72;;;-4.85;100.00
54038;BME280;39954;48.844;9.726;2023-04-04T05:45:50;96789.09;;;-4.83;100.00
54038;BME280;39954;48.844;9.726;2023-04-04T05:46:52;96785.84;;;-4.73;100.00
54038;BME280;39954;48.844;9.726;2023-04-04T05:47:57;96786.81;;;-4.64;100.00